Index of /wp-hr-content/uploads/2021/12/

NameLast ModifiedSize
UpParent Directory
File0-CLOSING-VETERINARIAN-DOA146-21.pdf2021-12-30 04:49 160k
File0-CLOSING-VOCATIONAL-REHABILITATION-COUNSELOR-III-DOA135-19.pdf2021-12-30 04:49 175k
FileADMINISTRATIVE-OFFICER-DEPT-DOA-212-21.pdf2021-12-30 04:49 138k
FileARCHAEOLOGICAL-TECHNICIAN-I-OPEN-DOA-219-21.pdf2021-12-30 04:49 133k
FileBUDGET-ANALYST-S.F.-DOA-204-21.pdf2021-12-12 22:07 146k
FileCOMMUNICABLE-DISEASE-CONTROL-COORDINATOR-II-DEPT-DOA-214-21.pdf2021-12-30 04:49 157k
FileCORRECTIONS-SOCIAL-WORKER-SUPERVISOR-OPEN-DOA-213-21.pdf2021-12-30 04:49 143k
FileDOA-Cir-2021-025C-Admin-Leave-for-Booster-and-Vac-of-Minors.pdf2021-12-02 00:28 70k
FileE911-ADMINISTRATOR-OPEN-DOA-206-21.pdf2021-12-12 22:07 149k
FileEMPLOYMENT-DEVELOPMENT-SUPERVISOR-S.F.-DOA-205-21.pdf2021-12-12 22:07 146k
FileENGINEERING-AIDE-III-OPEN-DOA-207-21.pdf2021-12-12 22:07 137k
FileEQUIPMENT-OPERATOR-III-DEPT-DOA-216-21.pdf2021-12-30 04:49 134k
[IMG]FRPAT-CANDIDATE-PREP-GUIDE-IMAGE-1024x720.png2021-12-03 06:34 184k
[IMG]FRPAT-CANDIDATE-PREP-GUIDE-IMAGE-1066x675.png2021-12-03 06:34 165k
[IMG]FRPAT-CANDIDATE-PREP-GUIDE-IMAGE-150x150.png2021-12-03 06:34 16k
[IMG]FRPAT-CANDIDATE-PREP-GUIDE-IMAGE-300x211.png2021-12-03 06:34 28k
[IMG]FRPAT-CANDIDATE-PREP-GUIDE-IMAGE-400x250.png2021-12-03 06:34 41k
[IMG]FRPAT-CANDIDATE-PREP-GUIDE-IMAGE-400x284.png2021-12-03 06:34 43k
[IMG]FRPAT-CANDIDATE-PREP-GUIDE-IMAGE-400x516.png2021-12-03 06:34 104k
[IMG]FRPAT-CANDIDATE-PREP-GUIDE-IMAGE-480x338.png2021-12-03 06:34 57k
[IMG]FRPAT-CANDIDATE-PREP-GUIDE-IMAGE-510x382.png2021-12-03 06:34 68k
[IMG]FRPAT-CANDIDATE-PREP-GUIDE-IMAGE-768x540.png2021-12-03 06:34 118k
[IMG]FRPAT-CANDIDATE-PREP-GUIDE-IMAGE-980x689.png2021-12-03 06:34 172k
[IMG]FRPAT-CANDIDATE-PREP-GUIDE-IMAGE.png2021-12-03 06:34 182k
FileFRPAT-CANDIDATE-PREPARATION-GUIDE-revised-12-2021.pdf2021-12-03 06:30 1328k
FileHEALTH-SERVICES-ADMINISTRATOR-OPEN-DOA-215-21.pdf2021-12-30 04:49 145k
FileKRISINDA-AGUON-NOTICE-OF-INTENT.pdf2021-12-07 04:33 34k
FileMAINTENANCE-WORKER-DEPT-DOA-208-21.pdf2021-12-12 22:07 134k
FileOFFICE-AIDE-OPEN-DOA-211-21.pdf2021-12-30 04:49 122k
FilePA-ACTION-DATE-11-18-2021-THRU-12-23-2021.pdf2021-12-27 23:20 2018k
FilePAYROLL-CLERK-I-OPEN-DOA-222-21.pdf2021-12-30 04:49 117k
FilePhysician-Specialist-Board-Certified.pdf2021-12-27 03:17 77k
FilePhysician-Specialist-Board-Eligible.pdf2021-12-27 03:17 78k
FilePLANNER-III-OPEN-DOA-220-21.pdf2021-12-30 04:49 137k
FilePROGRAM-COORDINATOR-II-OPEN-DOA-209-21.pdf2021-12-12 22:07 144k
FilePROPERTY-TAX-TECHNICIAN-I-OPEN-DOA-217-21.pdf2021-12-30 04:49 132k
FilePUBLIC-WELFARE-INVESTIGATION-SUPERVISOR-OPEN-DOA-210-21.pdf2021-12-12 22:07 161k
FileSCHOOL-BUS-DRIVER-OPEN-DOA-221-21.pdf2021-12-30 04:49 122k
FileSOCIAL-WORKER-I-CLTA-DOA-218-21.pdf2021-12-30 04:49 130k
FileVOCATIONAL-REHABILITATION-COUNSELOR-III-DEPT-DOA-199-21.pdf2021-12-12 22:07 154k
Proudly Served by LiteSpeed Web Server at hr.doa.guam.gov Port 443